sensor_id;sensor_type;location;lat;lon;timestamp;P1;durP1;ratioP1;P2;durP2;ratioP2
65387;SDS011;51992;53.528;49.474;2022-09-12T00:00:39;13.55;;;6.53;;
65387;SDS011;51992;53.528;49.474;2022-09-12T00:03:04;14.55;;;6.68;;
65387;SDS011;51992;53.528;49.474;2022-09-12T00:05:30;14.63;;;6.15;;
65387;SDS011;51992;53.528;49.474;2022-09-12T00:07:57;10.20;;;5.72;;
65387;SDS011;51992;53.528;49.474;2022-09-12T00:10:23;15.07;;;6.18;;
65387;SDS011;51992;53.528;49.474;2022-09-12T00:12:49;14.75;;;5.57;;
65387;SDS011;51992;53.528;49.474;2022-09-12T00:15:18;14.95;;;5.43;;
65387;SDS011;51992;53.528;49.474;2022-09-12T00:17:44;12.57;;;5.35;;
65387;SDS011;51992;53.528;49.474;2022-09-12T00:20:10;13.30;;;7.03;;
65387;SDS011;51992;53.528;49.474;2022-09-12T00:22:36;13.07;;;6.35;;
65387;SDS011;51992;53.528;49.474;2022-09-12T00:25:02;9.88;;;6.05;;
65387;SDS011;51992;53.528;49.474;2022-09-12T00:27:28;14.60;;;6.35;;
65387;SDS011;51992;53.528;49.474;2022-09-12T00:29:54;14.13;;;6.75;;
65387;SDS011;51992;53.528;49.474;2022-09-12T00:32:20;16.63;;;7.63;;
65387;SDS011;51992;53.528;49.474;2022-09-12T00:34:46;21.38;;;8.13;;
65387;SDS011;51992;53.528;49.474;2022-09-12T00:37:12;21.30;;;8.68;;
65387;SDS011;51992;53.528;49.474;2022-09-12T00:39:38;16.63;;;8.85;;
65387;SDS011;51992;53.528;49.474;2022-09-12T00:42:03;12.57;;;6.88;;
65387;SDS011;51992;53.528;49.474;2022-09-12T00:47:03;19.35;;;8.80;;
65387;SDS011;51992;53.528;49.474;2022-09-12T00:49:33;18.77;;;8.68;;
65387;SDS011;51992;53.528;49.474;2022-09-12T00:54:36;15.80;;;8.15;;
65387;SDS011;51992;53.528;49.474;2022-09-12T00:57:03;28.52;;;9.57;;
65387;SDS011;51992;53.528;49.474;2022-09-12T00:59:31;20.80;;;8.73;;
65387;SDS011;51992;53.528;49.474;2022-09-12T01:01:58;20.80;;;8.45;;
65387;SDS011;51992;53.528;49.474;2022-09-12T01:04:24;14.00;;;8.30;;
65387;SDS011;51992;53.528;49.474;2022-09-12T01:06:50;13.55;;;6.75;;
65387;SDS011;51992;53.528;49.474;2022-09-12T01:09:17;10.32;;;5.47;;
65387;SDS011;51992;53.528;49.474;2022-09-12T01:11:43;7.78;;;4.80;;
65387;SDS011;51992;53.528;49.474;2022-09-12T01:14:13;7.45;;;4.40;;
65387;SDS011;51992;53.528;49.474;2022-09-12T01:16:39;4.40;;;3.63;;
65387;SDS011;51992;53.528;49.474;2022-09-12T01:32:38;3.90;;;2.97;;
65387;SDS011;51992;53.528;49.474;2022-09-12T01:37:41;4.20;;;3.30;;
65387;SDS011;51992;53.528;49.474;2022-09-12T01:45:27;3.50;;;3.20;;
65387;SDS011;51992;53.528;49.474;2022-09-12T01:48:09;4.93;;;3.47;;
65387;SDS011;51992;53.528;49.474;2022-09-12T01:50:42;6.70;;;3.50;;
65387;SDS011;51992;53.528;49.474;2022-09-12T01:53:11;10.57;;;4.20;;
65387;SDS011;51992;53.528;49.474;2022-09-12T01:55:40;10.18;;;3.38;;
65387;SDS011;51992;53.528;49.474;2022-09-12T01:58:08;4.78;;;3.60;;
65387;SDS011;51992;53.528;49.474;2022-09-12T02:00:38;4.22;;;3.28;;
65387;SDS011;51992;53.528;49.474;2022-09-12T02:03:08;6.28;;;3.42;;
65387;SDS011;51992;53.528;49.474;2022-09-12T02:05:42;4.75;;;3.58;;
65387;SDS011;51992;53.528;49.474;2022-09-12T02:08:10;5.43;;;3.53;;
65387;SDS011;51992;53.528;49.474;2022-09-12T02:10:48;5.35;;;3.40;;
65387;SDS011;51992;53.528;49.474;2022-09-12T02:13:17;7.50;;;3.50;;
65387;SDS011;51992;53.528;49.474;2022-09-12T02:15:44;4.93;;;3.45;;
65387;SDS011;51992;53.528;49.474;2022-09-12T02:18:12;6.80;;;3.60;;
65387;SDS011;51992;53.528;49.474;2022-09-12T02:20:42;13.60;;;4.00;;
65387;SDS011;51992;53.528;49.474;2022-09-12T02:23:11;9.05;;;4.10;;
65387;SDS011;51992;53.528;49.474;2022-09-12T02:25:39;15.20;;;4.30;;
65387;SDS011;51992;53.528;49.474;2022-09-12T02:28:09;14.77;;;3.70;;
65387;SDS011;51992;53.528;49.474;2022-09-12T02:30:38;15.45;;;4.20;;
65387;SDS011;51992;53.528;49.474;2022-09-12T02:38:06;11.95;;;3.70;;
65387;SDS011;51992;53.528;49.474;2022-09-12T02:40:32;13.95;;;3.97;;
65387;SDS011;51992;53.528;49.474;2022-09-12T02:42:58;7.85;;;3.40;;
65387;SDS011;51992;53.528;49.474;2022-09-12T02:45:24;12.75;;;3.50;;
65387;SDS011;51992;53.528;49.474;2022-09-12T02:48:36;15.10;;;4.18;;
65387;SDS011;51992;53.528;49.474;2022-09-12T02:50:36;14.85;;;4.82;;
65387;SDS011;51992;53.528;49.474;2022-09-12T02:53:02;15.13;;;4.25;;
65387;SDS011;51992;53.528;49.474;2022-09-12T02:55:30;14.27;;;4.40;;
65387;SDS011;51992;53.528;49.474;2022-09-12T02:57:56;15.68;;;3.92;;
65387;SDS011;51992;53.528;49.474;2022-09-12T03:00:22;13.40;;;4.28;;
65387;SDS011;51992;53.528;49.474;2022-09-12T03:05:34;22.92;;;5.63;;
65387;SDS011;51992;53.528;49.474;2022-09-12T03:08:25;14.40;;;4.85;;
65387;SDS011;51992;53.528;49.474;2022-09-12T03:13:32;19.73;;;5.30;;
65387;SDS011;51992;53.528;49.474;2022-09-12T03:18:36;22.08;;;5.35;;
65387;SDS011;51992;53.528;49.474;2022-09-12T03:24:03;34.20;;;6.50;;
65387;SDS011;51992;53.528;49.474;2022-09-12T03:26:31;7.72;;;4.32;;
65387;SDS011;51992;53.528;49.474;2022-09-12T03:28:59;12.18;;;4.38;;
65387;SDS011;51992;53.528;49.474;2022-09-12T03:31:26;14.35;;;5.10;;
65387;SDS011;51992;53.528;49.474;2022-09-12T03:33:52;13.48;;;4.53;;
65387;SDS011;51992;53.528;49.474;2022-09-12T03:36:24;11.18;;;4.30;;
65387;SDS011;51992;53.528;49.474;2022-09-12T03:38:51;10.32;;;3.92;;
65387;SDS011;51992;53.528;49.474;2022-09-12T03:41:16;10.38;;;4.15;;
65387;SDS011;51992;53.528;49.474;2022-09-12T03:43:43;9.70;;;4.43;;
65387;SDS011;51992;53.528;49.474;2022-09-12T03:46:09;9.98;;;4.30;;
65387;SDS011;51992;53.528;49.474;2022-09-12T03:48:34;8.02;;;4.32;;
65387;SDS011;51992;53.528;49.474;2022-09-12T03:51:01;10.48;;;3.95;;
65387;SDS011;51992;53.528;49.474;2022-09-12T03:53:26;10.20;;;5.18;;
65387;SDS011;51992;53.528;49.474;2022-09-12T03:55:52;9.63;;;4.85;;
65387;SDS011;51992;53.528;49.474;2022-09-12T03:58:18;10.25;;;4.55;;
65387;SDS011;51992;53.528;49.474;2022-09-12T04:00:43;13.65;;;4.78;;
65387;SDS011;51992;53.528;49.474;2022-09-12T04:03:09;19.35;;;5.65;;
65387;SDS011;51992;53.528;49.474;2022-09-12T04:05:35;27.73;;;5.70;;
65387;SDS011;51992;53.528;49.474;2022-09-12T04:08:01;21.50;;;5.68;;
65387;SDS011;51992;53.528;49.474;2022-09-12T04:10:27;23.58;;;5.72;;
65387;SDS011;51992;53.528;49.474;2022-09-12T04:12:52;14.20;;;5.30;;
65387;SDS011;51992;53.528;49.474;2022-09-12T04:15:18;13.27;;;4.28;;
65387;SDS011;51992;53.528;49.474;2022-09-12T04:17:44;25.83;;;5.18;;
65387;SDS011;51992;53.528;49.474;2022-09-12T04:20:09;17.65;;;5.20;;
65387;SDS011;51992;53.528;49.474;2022-09-12T04:22:35;26.10;;;5.72;;
65387;SDS011;51992;53.528;49.474;2022-09-12T04:25:01;23.83;;;5.53;;
65387;SDS011;51992;53.528;49.474;2022-09-12T04:27:27;27.15;;;6.20;;
65387;SDS011;51992;53.528;49.474;2022-09-12T04:29:52;28.58;;;7.13;;
65387;SDS011;51992;53.528;49.474;2022-09-12T04:32:19;22.73;;;5.90;;
65387;SDS011;51992;53.528;49.474;2022-09-12T04:34:46;23.73;;;6.15;;
65387;SDS011;51992;53.528;49.474;2022-09-12T04:37:12;18.42;;;4.93;;
65387;SDS011;51992;53.528;49.474;2022-09-12T04:39:38;12.63;;;4.65;;
65387;SDS011;51992;53.528;49.474;2022-09-12T04:42:05;11.13;;;4.68;;
65387;SDS011;51992;53.528;49.474;2022-09-12T04:44:31;18.30;;;5.15;;
65387;SDS011;51992;53.528;49.474;2022-09-12T04:46:56;17.30;;;5.45;;
65387;SDS011;51992;53.528;49.474;2022-09-12T04:49:22;19.08;;;5.40;;
65387;SDS011;51992;53.528;49.474;2022-09-12T04:51:48;13.00;;;4.63;;
65387;SDS011;51992;53.528;49.474;2022-09-12T04:54:15;8.93;;;4.28;;
65387;SDS011;51992;53.528;49.474;2022-09-12T04:56:42;9.30;;;4.40;;
65387;SDS011;51992;53.528;49.474;2022-09-12T04:59:09;20.67;;;5.60;;
65387;SDS011;51992;53.528;49.474;2022-09-12T05:01:36;31.15;;;6.13;;
65387;SDS011;51992;53.528;49.474;2022-09-12T05:04:02;28.17;;;5.03;;
65387;SDS011;51992;53.528;49.474;2022-09-12T05:06:29;10.75;;;4.68;;
65387;SDS011;51992;53.528;49.474;2022-09-12T05:08:55;12.20;;;4.25;;
65387;SDS011;51992;53.528;49.474;2022-09-12T05:11:27;35.22;;;6.97;;
65387;SDS011;51992;53.528;49.474;2022-09-12T05:13:52;16.80;;;4.93;;
65387;SDS011;51992;53.528;49.474;2022-09-12T05:16:18;18.27;;;5.15;;
65387;SDS011;51992;53.528;49.474;2022-09-12T05:18:45;12.15;;;4.40;;
65387;SDS011;51992;53.528;49.474;2022-09-12T05:21:12;17.65;;;4.65;;
65387;SDS011;51992;53.528;49.474;2022-09-12T05:23:38;21.05;;;5.57;;
65387;SDS011;51992;53.528;49.474;2022-09-12T05:26:04;19.92;;;5.55;;
65387;SDS011;51992;53.528;49.474;2022-09-12T05:28:32;10.93;;;4.60;;
65387;SDS011;51992;53.528;49.474;2022-09-12T05:31:02;22.33;;;5.43;;
65387;SDS011;51992;53.528;49.474;2022-09-12T05:33:28;10.85;;;4.40;;
65387;SDS011;51992;53.528;49.474;2022-09-12T05:35:54;19.83;;;5.03;;
65387;SDS011;51992;53.528;49.474;2022-09-12T05:38:20;20.25;;;5.38;;
65387;SDS011;51992;53.528;49.474;2022-09-12T05:40:50;5.72;;;4.10;;
65387;SDS011;51992;53.528;49.474;2022-09-12T05:43:15;21.27;;;6.60;;
65387;SDS011;51992;53.528;49.474;2022-09-12T05:45:41;14.85;;;7.00;;
65387;SDS011;51992;53.528;49.474;2022-09-12T05:48:07;24.80;;;8.70;;
65387;SDS011;51992;53.528;49.474;2022-09-12T05:50:33;18.27;;;6.70;;
65387;SDS011;51992;53.528;49.474;2022-09-12T05:52:58;31.75;;;7.93;;
65387;SDS011;51992;53.528;49.474;2022-09-12T05:55:24;13.70;;;4.72;;
65387;SDS011;51992;53.528;49.474;2022-09-12T05:57:50;13.00;;;5.60;;
65387;SDS011;51992;53.528;49.474;2022-09-12T06:00:16;15.75;;;5.45;;
65387;SDS011;51992;53.528;49.474;2022-09-12T06:02:43;25.60;;;7.00;;
65387;SDS011;51992;53.528;49.474;2022-09-12T06:05:09;27.05;;;6.28;;
65387;SDS011;51992;53.528;49.474;2022-09-12T06:07:35;18.38;;;7.00;;
65387;SDS011;51992;53.528;49.474;2022-09-12T06:10:01;11.18;;;5.00;;
65387;SDS011;51992;53.528;49.474;2022-09-12T06:12:27;18.02;;;5.55;;
65387;SDS011;51992;53.528;49.474;2022-09-12T06:14:53;11.23;;;4.72;;
65387;SDS011;51992;53.528;49.474;2022-09-12T06:17:19;16.85;;;5.00;;
65387;SDS011;51992;53.528;49.474;2022-09-12T06:19:45;26.90;;;6.00;;
65387;SDS011;51992;53.528;49.474;2022-09-12T06:22:10;5.57;;;4.10;;
65387;SDS011;51992;53.528;49.474;2022-09-12T06:24:36;6.35;;;4.00;;
65387;SDS011;51992;53.528;49.474;2022-09-12T06:27:01;23.05;;;5.55;;
65387;SDS011;51992;53.528;49.474;2022-09-12T06:29:27;20.80;;;6.85;;
65387;SDS011;51992;53.528;49.474;2022-09-12T06:31:53;19.63;;;6.13;;
65387;SDS011;51992;53.528;49.474;2022-09-12T06:34:19;17.92;;;5.68;;
65387;SDS011;51992;53.528;49.474;2022-09-12T06:36:46;9.77;;;5.78;;
65387;SDS011;51992;53.528;49.474;2022-09-12T06:39:13;10.18;;;5.05;;
65387;SDS011;51992;53.528;49.474;2022-09-12T06:41:39;29.60;;;8.38;;
65387;SDS011;51992;53.528;49.474;2022-09-12T06:44:04;21.00;;;6.30;;
65387;SDS011;51992;53.528;49.474;2022-09-12T06:46:31;10.63;;;4.95;;
65387;SDS011;51992;53.528;49.474;2022-09-12T06:48:57;17.73;;;5.65;;
65387;SDS011;51992;53.528;49.474;2022-09-12T06:51:24;13.35;;;5.80;;
65387;SDS011;51992;53.528;49.474;2022-09-12T06:53:50;12.43;;;4.50;;
65387;SDS011;51992;53.528;49.474;2022-09-12T06:56:19;11.73;;;5.03;;
65387;SDS011;51992;53.528;49.474;2022-09-12T06:58:46;27.05;;;7.60;;
65387;SDS011;51992;53.528;49.474;2022-09-12T07:01:13;26.30;;;8.80;;
65387;SDS011;51992;53.528;49.474;2022-09-12T07:03:39;22.17;;;8.13;;
65387;SDS011;51992;53.528;49.474;2022-09-12T07:06:06;14.60;;;6.60;;
65387;SDS011;51992;53.528;49.474;2022-09-12T07:08:33;27.40;;;17.40;;
65387;SDS011;51992;53.528;49.474;2022-09-12T07:10:59;21.50;;;12.07;;
65387;SDS011;51992;53.528;49.474;2022-09-12T07:13:26;11.05;;;5.15;;
65387;SDS011;51992;53.528;49.474;2022-09-12T07:15:51;9.55;;;4.07;;
65387;SDS011;51992;53.528;49.474;2022-09-12T07:18:17;10.85;;;4.13;;
65387;SDS011;51992;53.528;49.474;2022-09-12T07:20:43;7.50;;;4.95;;
65387;SDS011;51992;53.528;49.474;2022-09-12T07:23:08;12.23;;;5.95;;
65387;SDS011;51992;53.528;49.474;2022-09-12T07:25:34;6.30;;;4.05;;
65387;SDS011;51992;53.528;49.474;2022-09-12T07:28:00;6.00;;;3.97;;
65387;SDS011;51992;53.528;49.474;2022-09-12T07:30:26;7.15;;;4.15;;
65387;SDS011;51992;53.528;49.474;2022-09-12T07:32:52;8.85;;;4.20;;
65387;SDS011;51992;53.528;49.474;2022-09-12T07:35:18;16.08;;;4.95;;
65387;SDS011;51992;53.528;49.474;2022-09-12T07:37:44;11.10;;;4.25;;
65387;SDS011;51992;53.528;49.474;2022-09-12T07:40:10;12.00;;;4.38;;
65387;SDS011;51992;53.528;49.474;2022-09-12T07:42:35;15.20;;;6.03;;
65387;SDS011;51992;53.528;49.474;2022-09-12T07:45:01;5.75;;;4.10;;
65387;SDS011;51992;53.528;49.474;2022-09-12T07:47:27;14.85;;;4.30;;
65387;SDS011;51992;53.528;49.474;2022-09-12T07:49:53;8.00;;;4.40;;
65387;SDS011;51992;53.528;49.474;2022-09-12T07:52:18;16.10;;;5.93;;
65387;SDS011;51992;53.528;49.474;2022-09-12T07:54:44;11.98;;;5.30;;
65387;SDS011;51992;53.528;49.474;2022-09-12T07:57:10;8.57;;;4.40;;
65387;SDS011;51992;53.528;49.474;2022-09-12T07:59:35;26.52;;;6.18;;
65387;SDS011;51992;53.528;49.474;2022-09-12T08:02:10;11.77;;;5.72;;
65387;SDS011;51992;53.528;49.474;2022-09-12T08:04:37;9.93;;;4.97;;
65387;SDS011;51992;53.528;49.474;2022-09-12T08:07:03;26.63;;;6.05;;
65387;SDS011;51992;53.528;49.474;2022-09-12T08:09:28;10.68;;;4.70;;
65387;SDS011;51992;53.528;49.474;2022-09-12T08:11:54;10.68;;;4.10;;
65387;SDS011;51992;53.528;49.474;2022-09-12T08:14:20;18.17;;;5.00;;
65387;SDS011;51992;53.528;49.474;2022-09-12T08:16:46;12.88;;;5.13;;
65387;SDS011;51992;53.528;49.474;2022-09-12T08:19:12;15.27;;;4.50;;
65387;SDS011;51992;53.528;49.474;2022-09-12T08:21:38;3.60;;;3.30;;
65387;SDS011;51992;53.528;49.474;2022-09-12T08:24:04;13.82;;;3.70;;
65387;SDS011;51992;53.528;49.474;2022-09-12T08:26:31;7.53;;;3.67;;
65387;SDS011;51992;53.528;49.474;2022-09-12T08:28:57;6.13;;;3.30;;
65387;SDS011;51992;53.528;49.474;2022-09-12T08:31:24;8.07;;;3.58;;
65387;SDS011;51992;53.528;49.474;2022-09-12T08:33:50;4.95;;;3.47;;
65387;SDS011;51992;53.528;49.474;2022-09-12T08:36:20;3.35;;;3.05;;
65387;SDS011;51992;53.528;49.474;2022-09-12T08:38:48;16.95;;;4.35;;
65387;SDS011;51992;53.528;49.474;2022-09-12T08:46:21;7.63;;;3.97;;
65387;SDS011;51992;53.528;49.474;2022-09-12T08:48:48;4.80;;;3.63;;
65387;SDS011;51992;53.528;49.474;2022-09-12T08:51:14;9.30;;;3.85;;
65387;SDS011;51992;53.528;49.474;2022-09-12T08:53:40;27.50;;;6.15;;
65387;SDS011;51992;53.528;49.474;2022-09-12T08:56:08;10.35;;;4.18;;
65387;SDS011;51992;53.528;49.474;2022-09-12T08:58:41;18.92;;;5.10;;
65387;SDS011;51992;53.528;49.474;2022-09-12T09:03:46;6.68;;;3.90;;
65387;SDS011;51992;53.528;49.474;2022-09-12T09:08:45;10.15;;;4.50;;
65387;SDS011;51992;53.528;49.474;2022-09-12T09:16:41;21.33;;;12.43;;
65387;SDS011;51992;53.528;49.474;2022-09-12T09:19:14;23.33;;;8.57;;
65387;SDS011;51992;53.528;49.474;2022-09-12T09:21:43;9.73;;;5.40;;
65387;SDS011;51992;53.528;49.474;2022-09-12T09:24:14;6.95;;;4.40;;
65387;SDS011;51992;53.528;49.474;2022-09-12T09:29:13;11.10;;;4.78;;
65387;SDS011;51992;53.528;49.474;2022-09-12T09:31:40;13.48;;;4.63;;
65387;SDS011;51992;53.528;49.474;2022-09-12T09:34:14;17.10;;;5.45;;
65387;SDS011;51992;53.528;49.474;2022-09-12T09:44:28;6.85;;;5.25;;
65387;SDS011;51992;53.528;49.474;2022-09-12T09:46:54;28.08;;;6.05;;
65387;SDS011;51992;53.528;49.474;2022-09-12T09:49:22;16.75;;;4.70;;
65387;SDS011;51992;53.528;49.474;2022-09-12T09:51:49;25.02;;;5.68;;
65387;SDS011;51992;53.528;49.474;2022-09-12T09:54:19;13.68;;;4.65;;
65387;SDS011;51992;53.528;49.474;2022-09-12T09:56:45;11.23;;;5.18;;
65387;SDS011;51992;53.528;49.474;2022-09-12T09:59:14;21.58;;;5.35;;
65387;SDS011;51992;53.528;49.474;2022-09-12T10:02:00;8.15;;;4.28;;
65387;SDS011;51992;53.528;49.474;2022-09-12T10:04:35;15.55;;;4.55;;
65387;SDS011;51992;53.528;49.474;2022-09-12T10:07:02;11.35;;;4.82;;
65387;SDS011;51992;53.528;49.474;2022-09-12T10:09:32;8.70;;;4.15;;
65387;SDS011;51992;53.528;49.474;2022-09-12T10:11:59;5.82;;;3.40;;
65387;SDS011;51992;53.528;49.474;2022-09-12T10:16:52;8.93;;;3.63;;
65387;SDS011;51992;53.528;49.474;2022-09-12T10:19:37;16.45;;;4.40;;
65387;SDS011;51992;53.528;49.474;2022-09-12T10:22:04;24.08;;;5.82;;
65387;SDS011;51992;53.528;49.474;2022-09-12T10:24:32;5.70;;;3.67;;
65387;SDS011;51992;53.528;49.474;2022-09-12T10:27:07;9.85;;;3.40;;
65387;SDS011;51992;53.528;49.474;2022-09-12T10:29:33;5.00;;;3.20;;
65387;SDS011;51992;53.528;49.474;2022-09-12T10:32:05;4.13;;;3.50;;
65387;SDS011;51992;53.528;49.474;2022-09-12T10:34:35;8.95;;;3.28;;
65387;SDS011;51992;53.528;49.474;2022-09-12T10:37:03;5.57;;;3.63;;
65387;SDS011;51992;53.528;49.474;2022-09-12T10:39:29;3.97;;;3.53;;
65387;SDS011;51992;53.528;49.474;2022-09-12T10:41:55;5.85;;;3.95;;
65387;SDS011;51992;53.528;49.474;2022-09-12T10:44:26;4.68;;;3.78;;
65387;SDS011;51992;53.528;49.474;2022-09-12T10:46:52;10.07;;;4.60;;
65387;SDS011;51992;53.528;49.474;2022-09-12T10:49:23;15.85;;;4.18;;
65387;SDS011;51992;53.528;49.474;2022-09-12T10:51:49;9.90;;;4.13;;
65387;SDS011;51992;53.528;49.474;2022-09-12T10:54:20;6.15;;;3.50;;
65387;SDS011;51992;53.528;49.474;2022-09-12T10:57:08;4.95;;;3.90;;
65387;SDS011;51992;53.528;49.474;2022-09-12T10:59:51;7.03;;;3.92;;
65387;SDS011;51992;53.528;49.474;2022-09-12T11:02:29;5.15;;;3.58;;
65387;SDS011;51992;53.528;49.474;2022-09-12T11:04:59;4.53;;;3.67;;
65387;SDS011;51992;53.528;49.474;2022-09-12T11:07:43;2.80;;;2.60;;
65387;SDS011;51992;53.528;49.474;2022-09-12T11:10:16;3.17;;;2.88;;
65387;SDS011;51992;53.528;49.474;2022-09-12T11:28:04;9.48;;;2.90;;
65387;SDS011;51992;53.528;49.474;2022-09-12T11:36:04;8.32;;;3.33;;
65387;SDS011;51992;53.528;49.474;2022-09-12T11:43:42;3.42;;;2.47;;
65387;SDS011;51992;53.528;49.474;2022-09-12T11:48:44;5.43;;;2.63;;
65387;SDS011;51992;53.528;49.474;2022-09-12T11:51:16;7.07;;;2.45;;
65387;SDS011;51992;53.528;49.474;2022-09-12T11:53:42;4.75;;;2.83;;
65387;SDS011;51992;53.528;49.474;2022-09-12T11:56:12;6.50;;;2.92;;
65387;SDS011;51992;53.528;49.474;2022-09-12T11:58:40;3.75;;;3.00;;
65387;SDS011;51992;53.528;49.474;2022-09-12T12:01:14;7.40;;;3.03;;
65387;SDS011;51992;53.528;49.474;2022-09-12T12:03:42;6.03;;;3.20;;
65387;SDS011;51992;53.528;49.474;2022-09-12T12:06:20;11.77;;;3.35;;
65387;SDS011;51992;53.528;49.474;2022-09-12T12:08:47;8.70;;;3.58;;
65387;SDS011;51992;53.528;49.474;2022-09-12T12:11:14;15.02;;;4.20;;
65387;SDS011;51992;53.528;49.474;2022-09-12T12:13:50;16.85;;;4.10;;
65387;SDS011;51992;53.528;49.474;2022-09-12T12:18:43;13.15;;;2.97;;
65387;SDS011;51992;53.528;49.474;2022-09-12T12:36:57;15.68;;;4.40;;
65387;SDS011;51992;53.528;49.474;2022-09-12T12:41:59;7.38;;;3.45;;
65387;SDS011;51992;53.528;49.474;2022-09-12T12:44:47;4.30;;;2.70;;
65387;SDS011;51992;53.528;49.474;2022-09-12T12:47:16;9.88;;;2.90;;
65387;SDS011;51992;53.528;49.474;2022-09-12T12:50:07;15.18;;;4.55;;
65387;SDS011;51992;53.528;49.474;2022-09-12T12:52:30;20.80;;;6.68;;
65387;SDS011;51992;53.528;49.474;2022-09-12T12:54:57;25.55;;;4.97;;
65387;SDS011;51992;53.528;49.474;2022-09-12T12:57:45;12.98;;;3.67;;
65387;SDS011;51992;53.528;49.474;2022-09-12T13:03:01;14.52;;;3.78;;
65387;SDS011;51992;53.528;49.474;2022-09-12T13:05:41;14.07;;;3.08;;
65387;SDS011;51992;53.528;49.474;2022-09-12T13:08:21;11.27;;;3.05;;
65387;SDS011;51992;53.528;49.474;2022-09-12T13:13:27;8.55;;;2.67;;
65387;SDS011;51992;53.528;49.474;2022-09-12T13:15:55;8.88;;;3.38;;
65387;SDS011;51992;53.528;49.474;2022-09-12T13:21:06;13.88;;;3.13;;
65387;SDS011;51992;53.528;49.474;2022-09-12T13:23:33;24.88;;;3.60;;
65387;SDS011;51992;53.528;49.474;2022-09-12T13:26:00;22.10;;;3.95;;
65387;SDS011;51992;53.528;49.474;2022-09-12T13:28:27;14.48;;;2.97;;
65387;SDS011;51992;53.528;49.474;2022-09-12T13:31:00;2.97;;;2.25;;
65387;SDS011;51992;53.528;49.474;2022-09-12T13:33:33;4.78;;;1.90;;
65387;SDS011;51992;53.528;49.474;2022-09-12T13:43:42;15.73;;;4.93;;
65387;SDS011;51992;53.528;49.474;2022-09-12T13:46:08;11.45;;;4.05;;
65387;SDS011;51992;53.528;49.474;2022-09-12T13:48:38;10.90;;;3.75;;
65387;SDS011;51992;53.528;49.474;2022-09-12T13:51:03;23.73;;;4.15;;
65387;SDS011;51992;53.528;49.474;2022-09-12T13:53:31;19.58;;;4.35;;
65387;SDS011;51992;53.528;49.474;2022-09-12T13:56:01;27.98;;;5.05;;
65387;SDS011;51992;53.528;49.474;2022-09-12T13:58:31;23.17;;;5.07;;
65387;SDS011;51992;53.528;49.474;2022-09-12T14:01:03;21.85;;;5.35;;
65387;SDS011;51992;53.528;49.474;2022-09-12T14:06:14;5.57;;;3.03;;
65387;SDS011;51992;53.528;49.474;2022-09-12T14:08:41;8.50;;;2.70;;
65387;SDS011;51992;53.528;49.474;2022-09-12T14:11:08;5.07;;;2.50;;
65387;SDS011;51992;53.528;49.474;2022-09-12T14:13:34;9.32;;;2.53;;
65387;SDS011;51992;53.528;49.474;2022-09-12T14:16:00;8.00;;;3.28;;
65387;SDS011;51992;53.528;49.474;2022-09-12T14:18:29;12.18;;;3.00;;
65387;SDS011;51992;53.528;49.474;2022-09-12T14:20:58;9.38;;;2.80;;
65387;SDS011;51992;53.528;49.474;2022-09-12T14:23:28;15.10;;;3.47;;
65387;SDS011;51992;53.528;49.474;2022-09-12T14:25:55;8.82;;;2.90;;
65387;SDS011;51992;53.528;49.474;2022-09-12T14:28:21;13.43;;;5.80;;
65387;SDS011;51992;53.528;49.474;2022-09-12T14:38:41;29.35;;;6.38;;
65387;SDS011;51992;53.528;49.474;2022-09-12T14:41:08;52.10;;;7.90;;
65387;SDS011;51992;53.528;49.474;2022-09-12T14:43:38;47.70;;;7.18;;
65387;SDS011;51992;53.528;49.474;2022-09-12T14:46:06;29.48;;;5.20;;
65387;SDS011;51992;53.528;49.474;2022-09-12T14:48:42;32.38;;;5.10;;
65387;SDS011;51992;53.528;49.474;2022-09-12T14:51:15;22.50;;;4.75;;
65387;SDS011;51992;53.528;49.474;2022-09-12T14:53:46;19.20;;;4.15;;
65387;SDS011;51992;53.528;49.474;2022-09-12T14:56:12;25.15;;;4.25;;
65387;SDS011;51992;53.528;49.474;2022-09-12T14:58:38;13.63;;;3.22;;
65387;SDS011;51992;53.528;49.474;2022-09-12T15:05:56;10.77;;;3.78;;
65387;SDS011;51992;53.528;49.474;2022-09-12T15:08:22;11.98;;;4.50;;
65387;SDS011;51992;53.528;49.474;2022-09-12T15:10:48;21.73;;;5.28;;
65387;SDS011;51992;53.528;49.474;2022-09-12T15:13:16;23.70;;;4.88;;
65387;SDS011;51992;53.528;49.474;2022-09-12T15:15:50;22.05;;;5.25;;
65387;SDS011;51992;53.528;49.474;2022-09-12T15:18:16;11.65;;;4.45;;
65387;SDS011;51992;53.528;49.474;2022-09-12T15:20:44;10.48;;;3.80;;
65387;SDS011;51992;53.528;49.474;2022-09-12T15:25:48;8.15;;;3.92;;
65387;SDS011;51992;53.528;49.474;2022-09-12T15:28:16;9.57;;;3.83;;
65387;SDS011;51992;53.528;49.474;2022-09-12T15:30:43;11.05;;;3.70;;
65387;SDS011;51992;53.528;49.474;2022-09-12T15:33:09;6.85;;;3.65;;
65387;SDS011;51992;53.528;49.474;2022-09-12T15:35:35;7.28;;;3.15;;
65387;SDS011;51992;53.528;49.474;2022-09-12T15:38:01;9.05;;;3.80;;
65387;SDS011;51992;53.528;49.474;2022-09-12T15:40:27;9.75;;;3.78;;
65387;SDS011;51992;53.528;49.474;2022-09-12T15:42:53;7.97;;;3.70;;
65387;SDS011;51992;53.528;49.474;2022-09-12T15:45:25;6.13;;;3.67;;
65387;SDS011;51992;53.528;49.474;2022-09-12T15:47:52;7.93;;;4.00;;
65387;SDS011;51992;53.528;49.474;2022-09-12T15:50:18;17.73;;;4.90;;
65387;SDS011;51992;53.528;49.474;2022-09-12T15:52:43;19.63;;;5.32;;
65387;SDS011;51992;53.528;49.474;2022-09-12T15:55:11;13.57;;;4.28;;
65387;SDS011;51992;53.528;49.474;2022-09-12T15:57:39;10.38;;;4.30;;
65387;SDS011;51992;53.528;49.474;2022-09-12T16:00:05;11.77;;;4.60;;
65387;SDS011;51992;53.528;49.474;2022-09-12T16:02:31;20.73;;;7.47;;
65387;SDS011;51992;53.528;49.474;2022-09-12T16:04:56;18.48;;;11.05;;
65387;SDS011;51992;53.528;49.474;2022-09-12T16:07:22;23.42;;;14.35;;
65387;SDS011;51992;53.528;49.474;2022-09-12T16:09:48;27.17;;;19.48;;
65387;SDS011;51992;53.528;49.474;2022-09-12T16:12:18;24.00;;;21.25;;
65387;SDS011;51992;53.528;49.474;2022-09-12T16:14:44;25.05;;;20.42;;
65387;SDS011;51992;53.528;49.474;2022-09-12T16:17:09;27.65;;;18.58;;
65387;SDS011;51992;53.528;49.474;2022-09-12T16:19:35;27.02;;;18.27;;
65387;SDS011;51992;53.528;49.474;2022-09-12T16:22:01;26.13;;;16.30;;
65387;SDS011;51992;53.528;49.474;2022-09-12T16:24:26;23.70;;;13.32;;
65387;SDS011;51992;53.528;49.474;2022-09-12T16:26:52;21.45;;;11.80;;
65387;SDS011;51992;53.528;49.474;2022-09-12T16:29:18;16.00;;;10.07;;
65387;SDS011;51992;53.528;49.474;2022-09-12T16:31:44;18.73;;;9.00;;
65387;SDS011;51992;53.528;49.474;2022-09-12T16:34:09;13.60;;;8.13;;
65387;SDS011;51992;53.528;49.474;2022-09-12T16:36:35;19.38;;;8.95;;
65387;SDS011;51992;53.528;49.474;2022-09-12T16:39:01;20.27;;;10.02;;
65387;SDS011;51992;53.528;49.474;2022-09-12T16:41:26;13.38;;;9.63;;
65387;SDS011;51992;53.528;49.474;2022-09-12T16:43:52;18.30;;;9.02;;
65387;SDS011;51992;53.528;49.474;2022-09-12T16:46:19;15.25;;;8.38;;
65387;SDS011;51992;53.528;49.474;2022-09-12T16:48:46;16.40;;;8.85;;
65387;SDS011;51992;53.528;49.474;2022-09-12T16:51:19;19.60;;;8.70;;
65387;SDS011;51992;53.528;49.474;2022-09-12T16:53:45;30.92;;;8.82;;
65387;SDS011;51992;53.528;49.474;2022-09-12T16:56:11;23.25;;;8.75;;
65387;SDS011;51992;53.528;49.474;2022-09-12T16:58:38;20.65;;;8.48;;
65387;SDS011;51992;53.528;49.474;2022-09-12T17:01:05;14.02;;;7.80;;
65387;SDS011;51992;53.528;49.474;2022-09-12T17:03:31;20.30;;;7.43;;